• Join FlightAware (Why Join?)
  • Login
  • US Flag 
05:15AM EDT


 

Airport Tracker/Info


-or-


 

Live Flight TrackerFlight Track Log ✈ SWA3516 ✈ 2013년 May 31일 ✈ KBWI - KPWM

Flight Track Log - Related Links

Times and Time Zones

All times are in EDT time to prevent confusion due to time zone crossing. See the SWA3516 flight status page for this flight to view local times or setup timezone preferences in your user account.

Time Position Orientation Groundspeed Altitude Reporting Facility
EDT Latitude Longitude Course Direction KTS MPH feet Rate Location/Type
10:11PM 39.1342 -76.6111 117° Southeast 167 192 7,500  Level Washington Center
10:12PM 39.1392 -76.5069 86° East 245 282 10,600 2,760 Climbing Washington Center
10:13PM 39.1422 -76.3811 88° East 288 331 13,100 2,160 Climbing Washington Center
10:14PM 39.1447 -76.2767 88° East 326 375 15,000 2,700 Climbing Washington Center
10:15PM 39.1664 -76.1136 80° East 359 413 18,500 3,060 Climbing Washington Center
10:16PM 39.1817 -75.9692 82° East 393 452 21,300 2,220 Climbing Washington Center
10:17PM 39.2258 -75.8353 67° East 399 459 23,000 1,860 Climbing Washington Center
10:18PM 39.3072 -75.7311 45° Northeast 392 451 25,000 960 Climbing Washington Center
10:19PM 39.3969 -75.6344 40° Northeast 409 471 25,000 240 Level Washington Center
10:20PM 39.4906 -75.5511 34° Northeast 398 458 25,500 1,320 Climbing Washington Center
10:21PM 39.5906 -75.4650 34° Northeast 412 474 27,700 2,280 Climbing Washington Center
10:22PM 39.6883 -75.3786 34° Northeast 417 480 30,100 2,400 Climbing Washington Center
10:23PM 39.7694 -75.2650 47° Northeast 417 480 32,500 1,320 Climbing Washington Center
10:24PM 39.8433 -75.1319 54° Northeast 424 488 33,000 180 Climbing New York Center
10:25PM 39.9164 -75.0092 52° Northeast 432 497 33,000  Level New York Center
10:26PM 40.0108 -74.8767 47° Northeast 437 503 33,000  Level New York Center
10:27PM 40.0836 -74.7617 50° Northeast 424 488 33,000  Level New York Center
10:28PM 40.1581 -74.6547 48° Northeast 424 488 33,000  Level New York Center
10:29PM 40.2369 -74.5367 49° Northeast 429 494 33,000  Level New York Center
10:30PM 40.3267 -74.4000 49° Northeast 434 499 33,000  Level New York Center
10:31PM 40.4075 -74.2789 49° Northeast 434 499 33,000  Level New York Center
10:33PM 40.5656 -74.0356 49° Northeast 465 535 33,000  Level Boston Center
10:34PM 40.6547 -73.9144 46° Northeast 442 509 33,000  Level Boston Center
10:35PM 40.7333 -73.7903 50° Northeast 437 503 33,000  Level Boston Center
10:36PM 40.8206 -73.6469 51° Northeast 443 510 33,000  Level Boston Center
10:37PM 40.9008 -73.5219 50° Northeast 443 510 33,000  Level Boston Center
10:38PM 40.9792 -73.3994 50° Northeast 443 510 33,000  Level Boston Center
10:39PM 41.0592 -73.2825 48° Northeast 437 503 33,000  Level Boston Center
10:40PM 41.1414 -73.1594 48° Northeast 432 497 33,000  Level Boston Center
10:41PM 41.2111 -73.0222 56° Northeast 432 497 33,000  Level Boston Center
10:42PM 41.2867 -72.8628 58° Northeast 450 518 33,000  Level Boston Center
10:43PM 41.3517 -72.7222 58° Northeast 450 518 33,000  Level Boston Center
10:44PM 41.4186 -72.5783 58° Northeast 450 518 33,000  Level Boston Center
10:45PM 41.4833 -72.4344 59° Northeast 450 518 33,000  Level Boston Center
10:46PM 41.5458 -72.2931 59° Northeast 450 518 33,000  Level Boston Center
10:47PM 41.6122 -72.1514 58° Northeast 450 518 33,000  Level Boston Center
10:48PM 41.6786 -72.0092 58° Northeast 450 518 33,000  Level Boston Center
10:49PM 41.7403 -71.8669 60° Northeast 450 518 33,000  Level Boston Center
10:50PM 41.8125 -71.7325 54° Northeast 450 518 33,000  Level Boston Center
10:51PM 41.9036 -71.6172 43° Northeast 445 512 33,000 -240 Level Boston Center
10:52PM 41.9964 -71.5100 41° Northeast 435 501 32,600 -720 Descending Boston Center
10:53PM 42.0892 -71.3967 42° Northeast 435 501 31,600 -960 Descending Boston Center
10:54PM 42.1839 -71.2772 43° Northeast 446 513 30,700 -1,500 Descending Boston Center
10:55PM 42.2764 -71.1606 43° Northeast 451 519 28,600 -2,580 Descending Boston Center
10:56PM 42.3689 -71.0464 42° Northeast 451 519 25,600 -2,400 Descending Boston Center
10:57PM 42.4550 -70.9317 44° Northeast 440 506 23,900 -840 Descending Boston Center
10:58PM 42.5308 -70.8314 44° Northeast 415 478 24,000 -420 Climbing Boston Center
10:59PM 42.6106 -70.7306 43° Northeast 393 452 23,100 -1,440 Descending Boston Center
11:00PM 42.6864 -70.6408 41° Northeast 381 438 21,200 -1,920 Descending Boston Center
11:01PM 42.7769 -70.5789 27° Northeast 364 419 19,300 -1,800 Descending Boston Center
11:02PM 42.8575 -70.5311 23° Northeast 354 407 17,700 -1,800 Descending Boston Center
11:03PM 42.9522 -70.4714 25° Northeast 348 400 15,700 -1,980 Descending Boston Center
11:04PM 43.0389 -70.4089 28° Northeast 343 395 13,800 -1,800 Descending Boston Center
11:05PM 43.1169 -70.3439 31° Northeast 338 389 12,100 -1,500 Descending Boston Center
11:06PM 43.1947 -70.2756 33° Northeast 327 376 10,900 -1,260 Descending Boston Center
11:07PM 43.2644 -70.2161 32° Northeast 306 352 9,600 -1,800 Descending Boston Center
11:08PM 43.3367 -70.1736 23° Northeast 282 325 7,300 -2,100 Descending Boston Center
11:09PM 43.4111 -70.1536 11° North 272 313 5,400 -2,100 Descending Boston Center
11:10PM 43.4858 -70.1392 North 272 313 3,200 -1,680 Descending Boston Center
11:11PM 43.5481 -70.1225 11° North 252 290 2,100 -780 Descending Boston Center
11:12PM 43.5922 -70.1353 348° North 177 204 1,700 -240 Descending Boston Center
11:13PM 43.6242 -70.1714 321° Northwest 151 174 1,700 -300 Level Boston Center
11:14PM 43.6375 -70.2167 292° West 138 159 1,200 -480 Descending Boston Center
11:15PM 43.6425 -70.2597 279° West 125 144 700 -540 Descending Boston Center
11:16PM 43.6458 -70.3169 275° West 120 138 100 5,100 Descending Boston Center
11:17PM 43.6467 -70.3656 271° West 120 138 11,000 5,400 Climbing Boston Center
11:18PM 43.6475 -70.4172 271° West 120 138 11,000  Level Boston Center
11:19PM 43.6483 -70.4658 271° West 120 138 11,000  Level Boston Center
11:20PM 43.6492 -70.5061 272° West 120 138 11,000  Level Boston Center
11:22PM 43.6460 -70.3279 101° East  Level Estimated
11:29PM 43.6456 -70.3086 101° East  Level Estimated
11:30PM 43.6456 -70.3086 101° East  Level Estimated
11:31PM 43.6456 -70.3086 101° East  Level Estimated